Missouri River (Missouri), Waverly (06895500)

StateMissouriLatestUnknown (72700 cfs)
RiverMissouri RiverRatingObservedEstimated
Updated2020-07-13 19:00 (38 minutes ago)Flood - The river is flooding. Obstacles can be treacherous or deadly. The river should be avoided at this stage for casual trips and definitely for the inexperienced. Trips should be attempted only with protective gear and equipment.Flood(none)(none)
Discharge72700 cfs (median: 61800 cfs)High - The river is high and potentially dangerous, especially for the young and / or inexperienced. Normal stream obstacles are sometimes difficult to navigate. Extended distances can be attempted, but canoe travel may not be advisable.High(none)(none)
Height15.15 feetGood - Conditions are ideal for a canoe or kayak. Boats typically will drag on fewer than one-quarter of riffles, if at all, and portages are unnecessary or rare. Normal float lengths can be attempted without a problem.Good(none)(none)
TrendRising (rising over 24 hours)Low - River is low but can still be floated. Some riffles are okay but most come with significant dragging and might need a portage. Float lengths should be reduced to accommodate low flow, dragging, and portages.Low(none)(none)
USGSExternal icon USGS Site (External icon Google Maps)Poor - River is too low to float comfortably. Most or all riffles will drag or must be portaged and some obstacles (such as slick shelf rock) cause undue problems. Avoid the river at this stage for casual paddling trips.Poor(none)(none)

Trending Data

Plot Image

Trips for Missouri River (Missouri), Waverly (06895500)

DateStartEndDistanceConditionDischargeHeightFishingDetails

A total of 0 rows are displayed.

Condition Descriptions

Fishing Conditions

Fish Species

Notes

Classic Trip List

The classic River Trips application is still available for use. It is updated with the new system using a data retrofit. It is no longer maintained. The original River Trips application is no longer updated (as of 1 Dec 2016) but can be checked for errors or for the condition of the data before it was converted to the new system.

Gauge Data Table

ObservationHeightDischargeMaximum
Discharge
Minimum
Discharge
Mean
Discharge
P05P10P20P25P50
(Median)
P75P80P90P95
2020-07-13 19:00 15.15 72700 257000 (1993) 35000 (2002) 77600 38500 39800 42300 43900 61800 95200 98000 144000 171000
2020-07-13 18:00 15.12 72500 257000 (1993) 35000 (2002) 77600 38500 39800 42300 43900 61800 95200 98000 144000 171000
2020-07-13 17:00 15.05 72000 257000 (1993) 35000 (2002) 77600 38500 39800 42300 43900 61800 95200 98000 144000 171000
2020-07-13 16:00 15.01 71700 257000 (1993) 35000 (2002) 77600 38500 39800 42300 43900 61800 95200 98000 144000 171000
2020-07-13 15:00 15.02 71800 257000 (1993) 35000 (2002) 77600 38500 39800 42300 43900 61800 95200 98000 144000 171000
2020-07-13 14:00 15.03 71900 257000 (1993) 35000 (2002) 77600 38500 39800 42300 43900 61800 95200 98000 144000 171000
2020-07-13 13:00 15.04 71900 257000 (1993) 35000 (2002) 77600 38500 39800 42300 43900 61800 95200 98000 144000 171000
2020-07-13 12:00 15.00 71700 257000 (1993) 35000 (2002) 77600 38500 39800 42300 43900 61800 95200 98000 144000 171000
2020-07-13 11:00 15.03 71900 257000 (1993) 35000 (2002) 77600 38500 39800 42300 43900 61800 95200 98000 144000 171000
2020-07-13 10:00 15.02 71800 257000 (1993) 35000 (2002) 77600 38500 39800 42300 43900 61800 95200 98000 144000 171000
2020-07-13 09:00 15.01 71700 257000 (1993) 35000 (2002) 77600 38500 39800 42300 43900 61800 95200 98000 144000 171000
2020-07-13 08:00 14.99 71600 257000 (1993) 35000 (2002) 77600 38500 39800 42300 43900 61800 95200 98000 144000 171000
2020-07-13 07:00 14.97 71500 257000 (1993) 35000 (2002) 77600 38500 39800 42300 43900 61800 95200 98000 144000 171000
2020-07-13 06:00 14.97 71500 257000 (1993) 35000 (2002) 77600 38500 39800 42300 43900 61800 95200 98000 144000 171000
2020-07-13 05:00 14.97 71500 257000 (1993) 35000 (2002) 77600 38500 39800 42300 43900 61800 95200 98000 144000 171000
2020-07-13 04:00 14.97 71500 257000 (1993) 35000 (2002) 77600 38500 39800 42300 43900 61800 95200 98000 144000 171000
2020-07-13 03:00 14.95 71300 257000 (1993) 35000 (2002) 77600 38500 39800 42300 43900 61800 95200 98000 144000 171000
2020-07-13 02:00 14.96 71400 257000 (1993) 35000 (2002) 77600 38500 39800 42300 43900 61800 95200 98000 144000 171000
2020-07-13 01:00 14.97 71500 257000 (1993) 35000 (2002) 77600 38500 39800 42300 43900 61800 95200 98000 144000 171000
2020-07-13 00:00 14.97 71500 257000 (1993) 35000 (2002) 77600 38500 39800 42300 43900 61800 95200 98000 144000 171000
2020-07-12 23:00 14.98 71500 251000 (1993) 35500 (2002) 77900 38700 40200 42400 44000 62000 96400 103000 148000 171000
2020-07-12 22:00 14.98 71500 251000 (1993) 35500 (2002) 77900 38700 40200 42400 44000 62000 96400 103000 148000 171000
2020-07-12 21:00 14.98 71500 251000 (1993) 35500 (2002) 77900 38700 40200 42400 44000 62000 96400 103000 148000 171000
2020-07-12 20:00 14.98 71500 251000 (1993) 35500 (2002) 77900 38700 40200 42400 44000 62000 96400 103000 148000 171000
2020-07-12 19:00 15.01 71700 251000 (1993) 35500 (2002) 77900 38700 40200 42400 44000 62000 96400 103000 148000 171000
2020-07-12 18:00 15.02 71800 251000 (1993) 35500 (2002) 77900 38700 40200 42400 44000 62000 96400 103000 148000 171000
2020-07-12 17:00 15.04 71900 251000 (1993) 35500 (2002) 77900 38700 40200 42400 44000 62000 96400 103000 148000 171000
2020-07-12 16:00 14.97 71500 251000 (1993) 35500 (2002) 77900 38700 40200 42400 44000 62000 96400 103000 148000 171000
2020-07-12 15:00 14.97 71500 251000 (1993) 35500 (2002) 77900 38700 40200 42400 44000 62000 96400 103000 148000 171000
2020-07-12 14:00 15.10 72300 251000 (1993) 35500 (2002) 77900 38700 40200 42400 44000 62000 96400 103000 148000 171000
2020-07-12 13:00 15.10 72300 251000 (1993) 35500 (2002) 77900 38700 40200 42400 44000 62000 96400 103000 148000 171000
2020-07-12 12:00 15.06 72100 251000 (1993) 35500 (2002) 77900 38700 40200 42400 44000 62000 96400 103000 148000 171000
2020-07-12 11:00 15.15 72700 251000 (1993) 35500 (2002) 77900 38700 40200 42400 44000 62000 96400 103000 148000 171000
2020-07-12 10:00 15.17 72800 251000 (1993) 35500 (2002) 77900 38700 40200 42400 44000 62000 96400 103000 148000 171000
2020-07-12 09:00 15.19 73000 251000 (1993) 35500 (2002) 77900 38700 40200 42400 44000 62000 96400 103000 148000 171000
2020-07-12 08:00 15.19 73000 251000 (1993) 35500 (2002) 77900 38700 40200 42400 44000 62000 96400 103000 148000 171000
2020-07-12 07:00 15.19 73000 251000 (1993) 35500 (2002) 77900 38700 40200 42400 44000 62000 96400 103000 148000 171000
2020-07-12 06:00 15.26 73500 251000 (1993) 35500 (2002) 77900 38700 40200 42400 44000 62000 96400 103000 148000 171000
2020-07-12 05:00 15.27 73500 251000 (1993) 35500 (2002) 77900 38700 40200 42400 44000 62000 96400 103000 148000 171000
2020-07-12 04:00 15.28 73600 251000 (1993) 35500 (2002) 77900 38700 40200 42400 44000 62000 96400 103000 148000 171000
2020-07-12 03:00 15.27 73500 251000 (1993) 35500 (2002) 77900 38700 40200 42400 44000 62000 96400 103000 148000 171000
2020-07-12 02:00 15.34 74000 251000 (1993) 35500 (2002) 77900 38700 40200 42400 44000 62000 96400 103000 148000 171000
2020-07-12 01:00 15.35 74100 251000 (1993) 35500 (2002) 77900 38700 40200 42400 44000 62000 96400 103000 148000 171000
2020-07-12 00:00 15.38 74300 251000 (1993) 35500 (2002) 77900 38700 40200 42400 44000 62000 96400 103000 148000 171000
2020-07-11 23:00 15.38 74300 248000 (2011) 34900 (2002) 77300 39200 40100 42500 44300 65000 98300 106000 126000 172000
2020-07-11 22:00 15.41 74500 248000 (2011) 34900 (2002) 77300 39200 40100 42500 44300 65000 98300 106000 126000 172000
2020-07-11 21:00 15.40 74400 248000 (2011) 34900 (2002) 77300 39200 40100 42500 44300 65000 98300 106000 126000 172000
2020-07-11 20:00 15.41 74500 248000 (2011) 34900 (2002) 77300 39200 40100 42500 44300 65000 98300 106000 126000 172000
2020-07-11 19:00 15.45 74800 248000 (2011) 34900 (2002) 77300 39200 40100 42500 44300 65000 98300 106000 126000 172000
2020-07-11 18:00 15.47 74900 248000 (2011) 34900 (2002) 77300 39200 40100 42500 44300 65000 98300 106000 126000 172000
2020-07-11 17:00 15.48 75000 248000 (2011) 34900 (2002) 77300 39200 40100 42500 44300 65000 98300 106000 126000 172000
2020-07-11 16:00 15.48 75000 248000 (2011) 34900 (2002) 77300 39200 40100 42500 44300 65000 98300 106000 126000 172000
2020-07-11 15:00 15.49 75100 248000 (2011) 34900 (2002) 77300 39200 40100 42500 44300 65000 98300 106000 126000 172000
2020-07-11 14:00 15.50 75100 248000 (2011) 34900 (2002) 77300 39200 40100 42500 44300 65000 98300 106000 126000 172000
2020-07-11 13:00 15.50 75100 248000 (2011) 34900 (2002) 77300 39200 40100 42500 44300 65000 98300 106000 126000 172000
2020-07-11 12:00 15.49 75100 248000 (2011) 34900 (2002) 77300 39200 40100 42500 44300 65000 98300 106000 126000 172000
2020-07-11 11:00 15.53 75400 248000 (2011) 34900 (2002) 77300 39200 40100 42500 44300 65000 98300 106000 126000 172000
2020-07-11 10:00 15.54 75400 248000 (2011) 34900 (2002) 77300 39200 40100 42500 44300 65000 98300 106000 126000 172000
2020-07-11 09:00 15.55 75500 248000 (2011) 34900 (2002) 77300 39200 40100 42500 44300 65000 98300 106000 126000 172000
2020-07-11 08:00 15.54 75400 248000 (2011) 34900 (2002) 77300 39200 40100 42500 44300 65000 98300 106000 126000 172000
2020-07-11 07:00 15.53 75400 248000 (2011) 34900 (2002) 77300 39200 40100 42500 44300 65000 98300 106000 126000 172000
2020-07-11 06:00 15.53 75400 248000 (2011) 34900 (2002) 77300 39200 40100 42500 44300 65000 98300 106000 126000 172000
2020-07-11 05:00 15.55 75500 248000 (2011) 34900 (2002) 77300 39200 40100 42500 44300 65000 98300 106000 126000 172000
2020-07-11 04:00 15.56 75600 248000 (2011) 34900 (2002) 77300 39200 40100 42500 44300 65000 98300 106000 126000 172000
2020-07-11 03:00 15.56 75600 248000 (2011) 34900 (2002) 77300 39200 40100 42500 44300 65000 98300 106000 126000 172000
2020-07-11 02:00 15.56 75600 248000 (2011) 34900 (2002) 77300 39200 40100 42500 44300 65000 98300 106000 126000 172000
2020-07-11 01:00 15.58 75700 248000 (2011) 34900 (2002) 77300 39200 40100 42500 44300 65000 98300 106000 126000 172000
2020-07-11 00:00 15.57 75600 248000 (2011) 34900 (2002) 77300 39200 40100 42500 44300 65000 98300 106000 126000 172000
2020-07-10 23:00 15.57 75600 256000 (2011) 34600 (2006) 77500 37400 40300 44300 45700 61400 98100 110000 130000 178000
2020-07-10 22:00 15.58 75700 256000 (2011) 34600 (2006) 77500 37400 40300 44300 45700 61400 98100 110000 130000 178000
2020-07-10 21:00 15.58 75700 256000 (2011) 34600 (2006) 77500 37400 40300 44300 45700 61400 98100 110000 130000 178000
2020-07-10 20:00 15.60 75900 256000 (2011) 34600 (2006) 77500 37400 40300 44300 45700 61400 98100 110000 130000 178000
2020-07-10 19:00 15.61 75900 256000 (2011) 34600 (2006) 77500 37400 40300 44300 45700 61400 98100 110000 130000 178000
2020-07-10 18:00 15.63 76100 256000 (2011) 34600 (2006) 77500 37400 40300 44300 45700 61400 98100 110000 130000 178000
2020-07-10 17:00 15.60 75900 256000 (2011) 34600 (2006) 77500 37400 40300 44300 45700 61400 98100 110000 130000 178000
2020-07-10 16:00 15.65 76200 256000 (2011) 34600 (2006) 77500 37400 40300 44300 45700 61400 98100 110000 130000 178000
2020-07-10 15:00 15.66 76300 256000 (2011) 34600 (2006) 77500 37400 40300 44300 45700 61400 98100 110000 130000 178000
2020-07-10 14:00 15.67 76400 256000 (2011) 34600 (2006) 77500 37400 40300 44300 45700 61400 98100 110000 130000 178000
2020-07-10 13:00 15.70 76600 256000 (2011) 34600 (2006) 77500 37400 40300 44300 45700 61400 98100 110000 130000 178000
2020-07-10 12:00 15.70 76600 256000 (2011) 34600 (2006) 77500 37400 40300 44300 45700 61400 98100 110000 130000 178000
2020-07-10 11:00 15.72 76700 256000 (2011) 34600 (2006) 77500 37400 40300 44300 45700 61400 98100 110000 130000 178000
2020-07-10 10:00 15.73 76800 256000 (2011) 34600 (2006) 77500 37400 40300 44300 45700 61400 98100 110000 130000 178000
2020-07-10 09:00 15.74 76900 256000 (2011) 34600 (2006) 77500 37400 40300 44300 45700 61400 98100 110000 130000 178000
2020-07-10 08:00 15.75 76900 256000 (2011) 34600 (2006) 77500 37400 40300 44300 45700 61400 98100 110000 130000 178000
2020-07-10 07:00 15.77 77100 256000 (2011) 34600 (2006) 77500 37400 40300 44300 45700 61400 98100 110000 130000 178000
2020-07-10 06:00 15.80 77300 256000 (2011) 34600 (2006) 77500 37400 40300 44300 45700 61400 98100 110000 130000 178000
2020-07-10 05:00 15.81 77400 256000 (2011) 34600 (2006) 77500 37400 40300 44300 45700 61400 98100 110000 130000 178000
2020-07-10 04:00 15.82 77400 256000 (2011) 34600 (2006) 77500 37400 40300 44300 45700 61400 98100 110000 130000 178000
2020-07-10 03:00 15.81 77400 256000 (2011) 34600 (2006) 77500 37400 40300 44300 45700 61400 98100 110000 130000 178000
2020-07-10 02:00 15.82 77400 256000 (2011) 34600 (2006) 77500 37400 40300 44300 45700 61400 98100 110000 130000 178000
2020-07-10 01:00 15.82 77400 256000 (2011) 34600 (2006) 77500 37400 40300 44300 45700 61400 98100 110000 130000 178000
2020-07-10 00:00 15.83 77500 256000 (2011) 34600 (2006) 77500 37400 40300 44300 45700 61400 98100 110000 130000 178000
2020-07-09 23:00 15.84 77600 261000 (2011) 34500 (2006) 78400 37800 40300 45900 46900 64400 99500 114000 142000 181000
2020-07-09 22:00 15.87 77800 261000 (2011) 34500 (2006) 78400 37800 40300 45900 46900 64400 99500 114000 142000 181000
2020-07-09 21:00 15.89 77900 261000 (2011) 34500 (2006) 78400 37800 40300 45900 46900 64400 99500 114000 142000 181000
2020-07-09 20:00 15.83 77500 261000 (2011) 34500 (2006) 78400 37800 40300 45900 46900 64400 99500 114000 142000 181000
2020-07-09 19:00 15.87 77800 261000 (2011) 34500 (2006) 78400 37800 40300 45900 46900 64400 99500 114000 142000 181000
2020-07-09 18:00 15.89 77900 261000 (2011) 34500 (2006) 78400 37800 40300 45900 46900 64400 99500 114000 142000 181000
2020-07-09 17:00 15.91 78100 261000 (2011) 34500 (2006) 78400 37800 40300 45900 46900 64400 99500 114000 142000 181000
2020-07-09 16:00 15.95 78400 261000 (2011) 34500 (2006) 78400 37800 40300 45900 46900 64400 99500 114000 142000 181000
2020-07-09 15:00 15.94 78300 261000 (2011) 34500 (2006) 78400 37800 40300 45900 46900 64400 99500 114000 142000 181000
2020-07-09 14:00 15.95 78400 261000 (2011) 34500 (2006) 78400 37800 40300 45900 46900 64400 99500 114000 142000 181000
2020-07-09 13:00 15.95 78400 261000 (2011) 34500 (2006) 78400 37800 40300 45900 46900 64400 99500 114000 142000 181000
2020-07-09 12:00 15.99 78700 261000 (2011) 34500 (2006) 78400 37800 40300 45900 46900 64400 99500 114000 142000 181000
2020-07-09 11:00 15.98 78600 261000 (2011) 34500 (2006) 78400 37800 40300 45900 46900 64400 99500 114000 142000 181000
2020-07-09 10:00 15.99 78700 261000 (2011) 34500 (2006) 78400 37800 40300 45900 46900 64400 99500 114000 142000 181000
2020-07-09 09:00 16.03 79000 261000 (2011) 34500 (2006) 78400 37800 40300 45900 46900 64400 99500 114000 142000 181000
2020-07-09 08:00 16.02 78900 261000 (2011) 34500 (2006) 78400 37800 40300 45900 46900 64400 99500 114000 142000 181000
2020-07-09 07:00 16.08 79300 261000 (2011) 34500 (2006) 78400 37800 40300 45900 46900 64400 99500 114000 142000 181000
2020-07-09 06:00 16.10 79500 261000 (2011) 34500 (2006) 78400 37800 40300 45900 46900 64400 99500 114000 142000 181000
2020-07-09 05:00 16.09 79400 261000 (2011) 34500 (2006) 78400 37800 40300 45900 46900 64400 99500 114000 142000 181000
2020-07-09 04:00 16.09 79400 261000 (2011) 34500 (2006) 78400 37800 40300 45900 46900 64400 99500 114000 142000 181000
2020-07-09 03:00 16.10 79500 261000 (2011) 34500 (2006) 78400 37800 40300 45900 46900 64400 99500 114000 142000 181000
2020-07-09 02:00 16.12 79600 261000 (2011) 34500 (2006) 78400 37800 40300 45900 46900 64400 99500 114000 142000 181000
2020-07-09 01:00 16.13 79700 261000 (2011) 34500 (2006) 78400 37800 40300 45900 46900 64400 99500 114000 142000 181000
2020-07-09 00:00 16.16 79900 261000 (2011) 34500 (2006) 78400 37800 40300 45900 46900 64400 99500 114000 142000 181000
2020-07-08 23:00 16.16 79900 255000 (2011) 34900 (2006) 81100 37000 42100 46600 48300 64600 108000 113000 157000 184000
2020-07-08 22:00 16.15 79900 255000 (2011) 34900 (2006) 81100 37000 42100 46600 48300 64600 108000 113000 157000 184000
2020-07-08 21:00 16.18 80100 255000 (2011) 34900 (2006) 81100 37000 42100 46600 48300 64600 108000 113000 157000 184000
2020-07-08 20:00 16.14 79800 255000 (2011) 34900 (2006) 81100 37000 42100 46600 48300 64600 108000 113000 157000 184000
2020-07-08 19:00 16.20 80200 255000 (2011) 34900 (2006) 81100 37000 42100 46600 48300 64600 108000 113000 157000 184000
2020-07-08 18:00 16.21 80300 255000 (2011) 34900 (2006) 81100 37000 42100 46600 48300 64600 108000 113000 157000 184000
2020-07-08 17:00 16.19 80100 255000 (2011) 34900 (2006) 81100 37000 42100 46600 48300 64600 108000 113000 157000 184000
2020-07-08 16:00 16.20 78700 255000 (2011) 34900 (2006) 81100 37000 42100 46600 48300 64600 108000 113000 157000 184000
2020-07-08 15:00 16.21 78800 255000 (2011) 34900 (2006) 81100 37000 42100 46600 48300 64600 108000 113000 157000 184000
2020-07-08 14:00 16.21 78800 255000 (2011) 34900 (2006) 81100 37000 42100 46600 48300 64600 108000 113000 157000 184000
2020-07-08 13:00 16.20 78700 255000 (2011) 34900 (2006) 81100 37000 42100 46600 48300 64600 108000 113000 157000 184000
2020-07-08 12:00 16.20 78700 255000 (2011) 34900 (2006) 81100 37000 42100 46600 48300 64600 108000 113000 157000 184000
2020-07-08 11:00 16.18 78600 255000 (2011) 34900 (2006) 81100 37000 42100 46600 48300 64600 108000 113000 157000 184000
2020-07-08 10:00 16.18 78600 255000 (2011) 34900 (2006) 81100 37000 42100 46600 48300 64600 108000 113000 157000 184000
2020-07-08 09:00 16.16 78500 255000 (2011) 34900 (2006) 81100 37000 42100 46600 48300 64600 108000 113000 157000 184000
2020-07-08 08:00 16.04 77600 255000 (2011) 34900 (2006) 81100 37000 42100 46600 48300 64600 108000 113000 157000 184000
2020-07-08 07:00 16.14 78300 255000 (2011) 34900 (2006) 81100 37000 42100 46600 48300 64600 108000 113000 157000 184000
2020-07-08 06:00 16.16 78500 255000 (2011) 34900 (2006) 81100 37000 42100 46600 48300 64600 108000 113000 157000 184000
2020-07-08 05:00 16.17 78500 255000 (2011) 34900 (2006) 81100 37000 42100 46600 48300 64600 108000 113000 157000 184000
2020-07-08 04:00 16.16 78500 255000 (2011) 34900 (2006) 81100 37000 42100 46600 48300 64600 108000 113000 157000 184000
2020-07-08 03:00 16.16 78500 255000 (2011) 34900 (2006) 81100 37000 42100 46600 48300 64600 108000 113000 157000 184000
2020-07-08 02:00 16.15 78400 255000 (2011) 34900 (2006) 81100 37000 42100 46600 48300 64600 108000 113000 157000 184000
2020-07-08 01:00 16.17 78500 255000 (2011) 34900 (2006) 81100 37000 42100 46600 48300 64600 108000 113000 157000 184000
2020-07-08 00:00 16.17 78500 255000 (2011) 34900 (2006) 81100 37000 42100 46600 48300 64600 108000 113000 157000 184000
2020-07-07 23:00 16.18 78600 246000 (2011) 35500 (2006) 80900 38200 41600 46500 49800 66500 98000 108000 140000 185000
2020-07-07 22:00 16.19 78700 246000 (2011) 35500 (2006) 80900 38200 41600 46500 49800 66500 98000 108000 140000 185000
2020-07-07 21:00 16.17 78500 246000 (2011) 35500 (2006) 80900 38200 41600 46500 49800 66500 98000 108000 140000 185000
2020-07-07 20:00 16.10 78000 246000 (2011) 35500 (2006) 80900 38200 41600 46500 49800 66500 98000 108000 140000 185000
2020-07-07 19:00 16.26 79200 246000 (2011) 35500 (2006) 80900 38200 41600 46500 49800 66500 98000 108000 140000 185000
2020-07-07 18:00 16.27 79300 246000 (2011) 35500 (2006) 80900 38200 41600 46500 49800 66500 98000 108000 140000 185000
2020-07-07 17:00 16.22 78900 246000 (2011) 35500 (2006) 80900 38200 41600 46500 49800 66500 98000 108000 140000 185000
2020-07-07 16:00 16.30 79500 246000 (2011) 35500 (2006) 80900 38200 41600 46500 49800 66500 98000 108000 140000 185000
2020-07-07 15:00 16.32 79600 246000 (2011) 35500 (2006) 80900 38200 41600 46500 49800 66500 98000 108000 140000 185000
2020-07-07 14:00 16.34 79800 246000 (2011) 35500 (2006) 80900 38200 41600 46500 49800 66500 98000 108000 140000 185000
2020-07-07 13:00 16.37 80000 246000 (2011) 35500 (2006) 80900 38200 41600 46500 49800 66500 98000 108000 140000 185000
2020-07-07 12:00 16.37 80000 246000 (2011) 35500 (2006) 80900 38200 41600 46500 49800 66500 98000 108000 140000 185000
2020-07-07 11:00 16.38 80100 246000 (2011) 35500 (2006) 80900 38200 41600 46500 49800 66500 98000 108000 140000 185000
2020-07-07 10:00 16.41 80300 246000 (2011) 35500 (2006) 80900 38200 41600 46500 49800 66500 98000 108000 140000 185000
2020-07-07 09:00 16.45 80600 246000 (2011) 35500 (2006) 80900 38200 41600 46500 49800 66500 98000 108000 140000 185000
2020-07-07 08:00 16.48 80800 246000 (2011) 35500 (2006) 80900 38200 41600 46500 49800 66500 98000 108000 140000 185000
2020-07-07 07:00 16.51 81000 246000 (2011) 35500 (2006) 80900 38200 41600 46500 49800 66500 98000 108000 140000 185000
2020-07-07 06:00 16.52 81100 246000 (2011) 35500 (2006) 80900 38200 41600 46500 49800 66500 98000 108000 140000 185000
2020-07-07 05:00 16.54 81300 246000 (2011) 35500 (2006) 80900 38200 41600 46500 49800 66500 98000 108000 140000 185000
2020-07-07 04:00 16.56 81400 246000 (2011) 35500 (2006) 80900 38200 41600 46500 49800 66500 98000 108000 140000 185000
2020-07-07 03:00 16.58 81600 246000 (2011) 35500 (2006) 80900 38200 41600 46500 49800 66500 98000 108000 140000 185000
2020-07-07 02:00 16.58 81600 246000 (2011) 35500 (2006) 80900 38200 41600 46500 49800 66500 98000 108000 140000 185000
2020-07-07 01:00 16.57 81500 246000 (2011) 35500 (2006) 80900 38200 41600 46500 49800 66500 98000 108000 140000 185000
2020-07-07 00:00 16.62 81900 246000 (2011) 35500 (2006) 80900 38200 41600 46500 49800 66500 98000 108000 140000 185000
2020-07-06 23:00 16.66 82200 240000 (2011) 36200 (2002) 79700 39000 42300 46400 50700 69100 90300 101000 135000 189000
2020-07-06 22:00 16.69 82400 240000 (2011) 36200 (2002) 79700 39000 42300 46400 50700 69100 90300 101000 135000 189000
2020-07-06 21:00 16.73 82700 240000 (2011) 36200 (2002) 79700 39000 42300 46400 50700 69100 90300 101000 135000 189000
2020-07-06 20:00 16.72 82600 240000 (2011) 36200 (2002) 79700 39000 42300 46400 50700 69100 90300 101000 135000 189000
2020-07-06 19:00 16.77 83000 240000 (2011) 36200 (2002) 79700 39000 42300 46400 50700 69100 90300 101000 135000 189000
2020-07-06 18:00 16.81 83300 240000 (2011) 36200 (2002) 79700 39000 42300 46400 50700 69100 90300 101000 135000 189000
2020-07-06 17:00 16.84 83500 240000 (2011) 36200 (2002) 79700 39000 42300 46400 50700 69100 90300 101000 135000 189000
2020-07-06 16:00 16.77 83000 240000 (2011) 36200 (2002) 79700 39000 42300 46400 50700 69100 90300 101000 135000 189000
2020-07-06 15:00 16.87 83800 240000 (2011) 36200 (2002) 79700 39000 42300 46400 50700 69100 90300 101000 135000 189000
2020-07-06 14:00 16.90 84000 240000 (2011) 36200 (2002) 79700 39000 42300 46400 50700 69100 90300 101000 135000 189000
2020-07-06 13:00 16.91 84100 240000 (2011) 36200 (2002) 79700 39000 42300 46400 50700 69100 90300 101000 135000 189000
2020-07-06 12:00 16.93 84200 240000 (2011) 36200 (2002) 79700 39000 42300 46400 50700 69100 90300 101000 135000 189000
2020-07-06 11:00 16.95 84400 240000 (2011) 36200 (2002) 79700 39000 42300 46400 50700 69100 90300 101000 135000 189000
2020-07-06 10:00 16.99 84700 240000 (2011) 36200 (2002) 79700 39000 42300 46400 50700 69100 90300 101000 135000 189000
2020-07-06 09:00 17.00 84800 240000 (2011) 36200 (2002) 79700 39000 42300 46400 50700 69100 90300 101000 135000 189000
2020-07-06 08:00 17.01 84800 240000 (2011) 36200 (2002) 79700 39000 42300 46400 50700 69100 90300 101000 135000 189000
2020-07-06 07:00 17.08 85400 240000 (2011) 36200 (2002) 79700 39000 42300 46400 50700 69100 90300 101000 135000 189000
2020-07-06 06:00 17.11 85600 240000 (2011) 36200 (2002) 79700 39000 42300 46400 50700 69100 90300 101000 135000 189000
2020-07-06 05:00 17.14 85800 240000 (2011) 36200 (2002) 79700 39000 42300 46400 50700 69100 90300 101000 135000 189000
2020-07-06 04:00 17.16 86000 240000 (2011) 36200 (2002) 79700 39000 42300 46400 50700 69100 90300 101000 135000 189000
2020-07-06 03:00 17.18 86200 240000 (2011) 36200 (2002) 79700 39000 42300 46400 50700 69100 90300 101000 135000 189000
2020-07-06 02:00 17.21 86400 240000 (2011) 36200 (2002) 79700 39000 42300 46400 50700 69100 90300 101000 135000 189000
2020-07-06 01:00 17.23 86500 240000 (2011) 36200 (2002) 79700 39000 42300 46400 50700 69100 90300 101000 135000 189000
2020-07-06 00:00 17.24 86600 240000 (2011) 36200 (2002) 79700 39000 42300 46400 50700 69100 90300 101000 135000 189000

A total of 188 rows are displayed for years 1958 through 2019.